Airfield :







YOU CAN JOIN US ON...

 
LOGIN :

Register | Disclaimer

   EN    FR    IT 

 









Legend :    VFR   Marginal VFR   IFR   Intensive IFR   Very Intensive IFR
Visi :
Ceiling :
>= 8 km
>= 3000ft
5 to 8 km
1000 to 3000 ft
1500m to 5 km
500 to 1000 ft
800 to 1500m
200 to 500 ft
< 800m
< 200 ft
Symbols :   Thunderstorms  Fog  Heavy snow  Heavy precipitations  Wind > 20 kt






- Airport Elevation : 626 ft


KCAR - Caribou Municipal

CURRENT METAR :
  • 260054Z AUTO 20009G17KT 10SM CLR 19/11 A3008 RMK AO2 SLP191 T01890106

EXPIRED METARs :
  • 252354Z AUTO 20006KT 10SM CLR 21/09 A3007 RMK AO2 SLP186 T02060094 10239 20200 55002
  • 252254Z AUTO 19011KT 10SM CLR 22/09 A3006 RMK AO2 SLP184 T02170089

TAF KCAR
Valid from the 26 at 00:00 until the 27 at 00:00 UTC


252320Z 2600/2624 18008KT P6SM SCT090 BKN150
FM261000 19009KT P6SM BKN025
FM261300 22007KT P6SM BKN050
FM261700 24008KT P6SM VCSH BKN050
KZBW FIR / North America



MET'MAP, your aeronautical weather chart ! - Copyright ORBIFLY December 2007 - Disclaimer

ORBIFLY MET'MAP TEAM :

Programming & Development : Alexandra Zaïnal
Concept & original design : Baudouin d'Aumeries
Assistance for programming : Marc-Olivier Méhu
Technical & hardware support : Manuel Goepfert

Contact : metmap@orbifly.com




SOURCES & CREDITS :

   NOAA